Bloomfield, Iowa
Current Conditions -  °F | °C
As of 9:53 AM on Thursday 18 Dec 2014 (Local Time) from KOTM Reporting Station
Light Snow Light Snow  
Wind Chill: 23°   Ceiling: 2200
Heat Index: 23°   Visibility: 1mi
Dew Point: 19°   Wind: 3mph
Humidity: 85%   Direction: 100°E
Pressure: 30.28"   Gusts: NA
Location:  40.75°N, 92.41°W
Report Text: KOTM 181553Z AUTO 10003KT 1SM -SN BR SCT007 BKN022 OVC031 M05/M07 A3028 RMK AO2 SLP266 P0002 T10501072
Loading
Personal Weather Stations






























Interactive Weather Map New forecast layout! Learn more

10-Day Weather Forecast

Advertisements
Track Severe Weather on mobile